createdAt,value
2023-05-04T00:02:08.708Z,100531.47
2023-05-04T00:04:36.138Z,100522.44
2023-05-04T00:07:03.336Z,100528.56
2023-05-04T00:09:31.710Z,100530.16
2023-05-04T00:11:58.774Z,100521.28
2023-05-04T00:14:26.526Z,100530.66
2023-05-04T00:16:53.701Z,100526.00
2023-05-04T00:19:20.986Z,100533.16
2023-05-04T00:21:48.203Z,100527.75
2023-05-04T00:24:15.458Z,100525.31
2023-05-04T00:26:42.633Z,100522.00
2023-05-04T00:29:09.996Z,100521.28
2023-05-04T00:31:37.259Z,100520.53
2023-05-04T00:34:04.465Z,100524.88
2023-05-04T00:36:31.665Z,100529.19
2023-05-04T00:38:58.795Z,100518.63
2023-05-04T00:41:26.036Z,100521.28
2023-05-04T00:43:53.218Z,100518.53
2023-05-04T00:46:20.534Z,100520.22
2023-05-04T00:48:50.086Z,100514.94
2023-05-04T00:51:20.780Z,100530.53
2023-05-04T00:53:49.587Z,100515.53
2023-05-04T00:56:21.440Z,100524.28
2023-05-04T00:58:48.680Z,100520.44
2023-05-04T01:01:15.982Z,100525.47
2023-05-04T01:03:43.298Z,100528.06
2023-05-04T01:06:34.973Z,100519.41
2023-05-04T01:09:47.281Z,100520.03
2023-05-04T01:12:36.711Z,100516.06
2023-05-04T01:15:05.839Z,100520.13
2023-05-04T01:17:33.072Z,100511.19
2023-05-04T01:20:00.280Z,100509.34
2023-05-04T01:22:27.576Z,100506.03
2023-05-04T01:24:55.481Z,100506.94
2023-05-04T01:27:43.197Z,100501.69
2023-05-04T01:30:29.096Z,100505.97
2023-05-04T01:32:58.399Z,100505.84
2023-05-04T01:35:26.410Z,100513.50
2023-05-04T01:37:54.415Z,100510.19
2023-05-04T01:40:21.657Z,100506.94
2023-05-04T01:42:48.794Z,100509.00
2023-05-04T01:45:16.096Z,100511.75
2023-05-04T01:47:43.576Z,100510.09
2023-05-04T01:50:11.731Z,100507.50
2023-05-04T01:52:38.904Z,100511.06
2023-05-04T01:55:06.474Z,100511.19
2023-05-04T01:57:33.885Z,100514.69
2023-05-04T02:00:01.336Z,100507.56
2023-05-04T02:02:28.593Z,100511.88
2023-05-04T02:04:56.100Z,100513.81
2023-05-04T02:07:23.538Z,100511.19
2023-05-04T02:09:50.855Z,100506.59
2023-05-04T02:12:18.077Z,100511.75
2023-05-04T02:14:45.315Z,100502.59
2023-05-04T02:17:12.462Z,100514.59
2023-05-04T02:19:39.749Z,100511.97
2023-05-04T02:22:07.183Z,100511.97
2023-05-04T02:24:35.897Z,100513.63
2023-05-04T02:27:03.308Z,100514.47
2023-05-04T02:29:30.547Z,100504.66
2023-05-04T02:31:57.795Z,100508.09
2023-05-04T02:34:25.123Z,100508.63
2023-05-04T02:36:52.271Z,100505.66
2023-05-04T02:39:19.438Z,100504.56
2023-05-04T02:41:46.840Z,100505.16
2023-05-04T02:44:13.967Z,100497.97
2023-05-04T02:46:42.030Z,100497.72
2023-05-04T02:49:09.303Z,100500.41
2023-05-04T02:51:36.468Z,100499.50
2023-05-04T02:54:03.783Z,100496.47
2023-05-04T02:56:30.963Z,100494.59
2023-05-04T02:58:58.680Z,100497.16
2023-05-04T03:01:25.922Z,100502.16
2023-05-04T03:03:53.108Z,100509.00
2023-05-04T03:06:20.286Z,100509.78
2023-05-04T03:08:47.411Z,100500.16
2023-05-04T03:11:14.536Z,100505.47
2023-05-04T03:13:41.901Z,100497.59
2023-05-04T03:16:09.129Z,100500.91
2023-05-04T03:18:36.345Z,100507.91
2023-05-04T03:21:04.333Z,100501.50
2023-05-04T03:23:32.250Z,100501.41
2023-05-04T03:25:59.422Z,100504.38
2023-05-04T03:28:26.800Z,100501.91
2023-05-04T03:30:54.213Z,100501.00
2023-05-04T03:33:22.107Z,100499.25
2023-05-04T03:35:49.387Z,100495.84
2023-05-04T03:38:16.721Z,100493.22
2023-05-04T03:40:45.223Z,100501.91
2023-05-04T03:43:13.997Z,100486.13
2023-05-04T03:45:41.344Z,100485.84
2023-05-04T03:48:08.582Z,100491.09
2023-05-04T03:50:35.791Z,100482.56
2023-05-04T03:53:02.988Z,100484.56
2023-05-04T03:55:30.857Z,100489.88
2023-05-04T03:57:58.397Z,100488.44
2023-05-04T04:00:27.184Z,100497.31
2023-05-04T04:03:02.283Z,100490.34
2023-05-04T04:05:30.150Z,100487.78
2023-05-04T04:07:57.655Z,100494.22
2023-05-04T04:10:25.997Z,100494.50
2023-05-04T04:12:53.247Z,100493.09
2023-05-04T04:15:20.560Z,100504.50
2023-05-04T04:17:47.878Z,100495.72
2023-05-04T04:20:15.985Z,100504.50
2023-05-04T04:22:43.107Z,100503.75
2023-05-04T04:25:10.480Z,100498.63
2023-05-04T04:27:37.807Z,100488.22
2023-05-04T04:30:06.691Z,100491.91
2023-05-04T04:32:34.214Z,100487.75
2023-05-04T04:35:01.604Z,100499.25
2023-05-04T04:37:28.972Z,100495.06
2023-05-04T04:39:56.499Z,100496.22
2023-05-04T04:42:24.009Z,100498.84
2023-05-04T04:44:52.256Z,100496.41
2023-05-04T04:47:19.701Z,100496.53
2023-05-04T04:49:47.734Z,100501.69
2023-05-04T04:52:15.830Z,100504.31
2023-05-04T04:54:46.072Z,100507.06
2023-05-04T04:57:13.621Z,100514.25
2023-05-04T04:59:40.967Z,100508.31
2023-05-04T05:02:10.811Z,100506.78
2023-05-04T05:04:41.386Z,100504.34
2023-05-04T05:07:08.923Z,100502.94
2023-05-04T05:09:36.283Z,100504.16
2023-05-04T05:12:07.173Z,100515.75
2023-05-04T05:14:35.143Z,100508.09
2023-05-04T05:17:05.639Z,100507.56
2023-05-04T05:19:37.082Z,100503.41
2023-05-04T05:22:07.648Z,100512.53
2023-05-04T05:24:34.906Z,100515.56
2023-05-04T05:27:02.497Z,100512.38
2023-05-04T05:29:29.760Z,100521.25
2023-05-04T05:31:57.064Z,100517.88
2023-05-04T05:34:24.224Z,100517.22
2023-05-04T05:36:51.353Z,100517.44
2023-05-04T05:39:18.544Z,100516.88
2023-05-04T05:41:45.760Z,100524.16
2023-05-04T05:44:13.632Z,100526.09
2023-05-04T05:46:41.723Z,100530.13
2023-05-04T05:49:09.190Z,100521.78
2023-05-04T05:51:36.369Z,100523.50
2023-05-04T05:54:03.660Z,100522.25
2023-05-04T05:56:30.825Z,100521.38
2023-05-04T05:58:58.040Z,100521.75
2023-05-04T06:01:26.523Z,100518.91
2023-05-04T06:03:53.878Z,100519.41
2023-05-04T06:06:21.212Z,100524.94
2023-05-04T06:08:48.333Z,100525.19
2023-05-04T06:11:15.495Z,100518.25
2023-05-04T06:13:42.635Z,100520.78
2023-05-04T06:16:09.893Z,100522.00
2023-05-04T06:18:37.107Z,100522.81
2023-05-04T06:21:04.748Z,100524.47
2023-05-04T06:23:32.592Z,100520.16
2023-05-04T06:25:59.754Z,100516.47
2023-05-04T06:28:27.558Z,100517.38
2023-05-04T06:30:54.694Z,100519.50
2023-05-04T06:33:21.888Z,100514.44
2023-05-04T06:35:49.083Z,100520.84
2023-05-04T06:38:16.236Z,100518.66
2023-05-04T06:40:43.628Z,100523.59
2023-05-04T06:43:11.249Z,100517.22
2023-05-04T06:45:39.411Z,100517.94
2023-05-04T06:48:07.776Z,100522.00
2023-05-04T06:50:36.174Z,100518.03
2023-05-04T06:53:12.442Z,100525.91
2023-05-04T06:55:39.669Z,100519.03
2023-05-04T06:58:06.942Z,100521.94
2023-05-04T07:00:34.895Z,100522.44
2023-05-04T07:03:02.190Z,100527.75
2023-05-04T07:05:29.786Z,100529.03
2023-05-04T07:07:58.848Z,100526.06
2023-05-04T07:10:26.105Z,100531.41
2023-05-04T07:12:53.351Z,100530.97
2023-05-04T07:15:20.909Z,100525.03
2023-05-04T07:17:48.524Z,100533.94
2023-05-04T07:20:16.015Z,100536.03
2023-05-04T07:22:43.307Z,100534.25
2023-05-04T07:25:10.576Z,100532.19
2023-05-04T07:27:38.062Z,100531.41
2023-05-04T07:30:07.415Z,100536.22
2023-05-04T07:32:34.598Z,100519.69
2023-05-04T07:35:01.810Z,100524.22
2023-05-04T07:37:29.003Z,100530.44
2023-05-04T07:39:56.349Z,100528.03
2023-05-04T07:42:23.597Z,100530.84
2023-05-04T07:44:52.451Z,100523.66
2023-05-04T07:47:20.109Z,100529.53
2023-05-04T07:49:47.425Z,100527.47
2023-05-04T07:52:14.659Z,100522.19
2023-05-04T07:54:41.838Z,100524.34
2023-05-04T07:57:09.027Z,100527.84
2023-05-04T07:59:36.230Z,100526.50
2023-05-04T08:02:04.233Z,100524.97
2023-05-04T08:04:31.615Z,100533.56
2023-05-04T08:06:58.928Z,100533.75
2023-05-04T08:09:26.147Z,100536.50
2023-05-04T08:11:53.962Z,100529.28
2023-05-04T08:14:21.221Z,100533.69
2023-05-04T08:16:48.566Z,100528.31
2023-05-04T08:19:15.897Z,100532.06
2023-05-04T08:21:43.081Z,100529.22
2023-05-04T08:24:10.695Z,100521.97
2023-05-04T08:26:38.492Z,100516.81
2023-05-04T08:29:08.301Z,100527.34
2023-05-04T08:31:36.972Z,100520.44
2023-05-04T08:34:04.681Z,100519.06
2023-05-04T08:36:32.109Z,100518.59
2023-05-04T08:38:59.253Z,100517.94
2023-05-04T08:41:26.650Z,100519.38
2023-05-04T08:43:54.239Z,100516.16
2023-05-04T08:46:23.062Z,100515.59
2023-05-04T08:48:51.699Z,100521.81
2023-05-04T08:51:20.700Z,100515.41
2023-05-04T08:53:50.676Z,100521.66
2023-05-04T08:56:19.883Z,100516.31
2023-05-04T08:58:52.276Z,100520.13
2023-05-04T09:01:20.666Z,100522.31
2023-05-04T09:03:48.873Z,100517.22
2023-05-04T09:06:16.267Z,100522.00
2023-05-04T09:08:43.459Z,100518.81
2023-05-04T09:11:10.660Z,100513.47
2023-05-04T09:13:38.625Z,100513.81
2023-05-04T09:16:07.613Z,100514.16
2023-05-04T09:18:44.421Z,100505.69
2023-05-04T09:21:12.408Z,100522.88
2023-05-04T09:23:53.944Z,100515.63
2023-05-04T09:26:32.439Z,100512.59
2023-05-04T09:29:15.861Z,100504.38
2023-05-04T09:31:52.580Z,100506.03
2023-05-04T09:34:21.345Z,100503.34
2023-05-04T09:37:03.603Z,100511.91
2023-05-04T09:39:30.923Z,100504.63
2023-05-04T09:41:58.154Z,100506.56
2023-05-04T09:44:29.496Z,100510.06
2023-05-04T09:46:59.331Z,100510.06
2023-05-04T09:49:37.878Z,100506.16
2023-05-04T09:52:06.817Z,100502.72
2023-05-04T09:54:36.237Z,100494.00
2023-05-04T09:57:17.915Z,100502.94
2023-05-04T09:59:45.591Z,100505.09
2023-05-04T10:02:22.558Z,100498.59
2023-05-04T10:04:52.874Z,100506.31
2023-05-04T10:07:20.893Z,100502.38
2023-05-04T10:09:51.263Z,100496.50
2023-05-04T10:12:18.561Z,100500.34
2023-05-04T10:14:46.986Z,100489.50
2023-05-04T10:18:10.832Z,100488.94
2023-05-04T10:21:18.797Z,100492.16
2023-05-04T10:24:07.325Z,100496.38
2023-05-04T10:26:59.498Z,100486.38
2023-05-04T10:29:30.319Z,100487.16
2023-05-04T10:31:57.811Z,100484.91
2023-05-04T10:34:33.932Z,100477.00
2023-05-04T10:37:03.563Z,100480.31
2023-05-04T10:39:35.250Z,100477.47
2023-05-04T10:42:08.089Z,100474.66
2023-05-04T10:44:54.934Z,100479.94
2023-05-04T10:47:37.948Z,100465.44
2023-05-04T10:50:14.382Z,100468.03
2023-05-04T10:52:58.190Z,100449.59
2023-05-04T10:55:26.221Z,100466.56
2023-05-04T10:57:56.876Z,100462.19
2023-05-04T11:00:37.030Z,100457.63
2023-05-04T11:03:07.496Z,100446.09
2023-05-04T11:05:54.651Z,100452.31
2023-05-04T11:08:25.924Z,100437.78
2023-05-04T11:11:08.872Z,100444.16
2023-05-04T11:13:46.168Z,100441.53
2023-05-04T11:16:23.268Z,100445.28
2023-05-04T11:18:50.662Z,100438.72
2023-05-04T11:21:28.124Z,100423.91
2023-05-04T11:23:59.866Z,100425.56
2023-05-04T11:26:28.680Z,100427.41
2023-05-04T11:28:55.929Z,100414.94
2023-05-04T11:31:23.243Z,100405.03
2023-05-04T11:33:54.517Z,100408.13
2023-05-04T11:36:22.876Z,100395.75
2023-05-04T11:38:50.911Z,100396.66
2023-05-04T11:41:18.026Z,100391.75
2023-05-04T11:43:46.593Z,100387.97
2023-05-04T11:46:16.412Z,100371.59
2023-05-04T11:48:44.382Z,100380.91
2023-05-04T11:51:11.558Z,100388.59
2023-05-04T11:53:41.168Z,100380.06
2023-05-04T11:56:09.711Z,100391.78
2023-05-04T11:58:37.674Z,100382.03
2023-05-04T12:01:05.276Z,100389.84
2023-05-04T12:03:52.087Z,100386.41
2023-05-04T12:06:34.194Z,100386.94
2023-05-04T12:09:06.568Z,100380.72
2023-05-04T12:11:35.267Z,100383.59
2023-05-04T12:14:10.268Z,100375.59
2023-05-04T12:16:40.263Z,100382.81
2023-05-04T12:19:15.546Z,100369.53
2023-05-04T12:21:53.255Z,100369.56
2023-05-04T12:24:26.712Z,100364.22
2023-05-04T12:26:53.893Z,100360.56
2023-05-04T12:29:21.297Z,100356.06
2023-05-04T12:31:48.517Z,100351.50
2023-05-04T12:34:15.896Z,100352.41
2023-05-04T12:36:44.351Z,100346.22
2023-05-04T12:39:11.494Z,100351.22
2023-05-04T12:41:38.851Z,100345.91
2023-05-04T12:44:05.993Z,100343.53
2023-05-04T12:46:33.235Z,100337.50
2023-05-04T12:49:00.494Z,100328.53
2023-05-04T12:51:27.631Z,100324.94
2023-05-04T12:53:57.761Z,100322.31
2023-05-04T12:56:25.164Z,100315.22
2023-05-04T12:58:52.346Z,100321.47
2023-05-04T13:01:20.036Z,100316.97
2023-05-04T13:03:47.366Z,100308.06
2023-05-04T13:06:14.788Z,100306.28
2023-05-04T13:08:41.972Z,100308.72
2023-05-04T13:11:09.116Z,100301.78
2023-05-04T13:13:37.024Z,100296.22
2023-05-04T13:16:05.932Z,100295.19
2023-05-04T13:18:33.428Z,100293.75
2023-05-04T13:21:00.605Z,100288.50
2023-05-04T13:23:27.864Z,100289.88
2023-05-04T13:25:55.117Z,100300.84
2023-05-04T13:28:22.510Z,100286.38
2023-05-04T13:30:49.821Z,100287.69
2023-05-04T13:33:28.722Z,100286.34
2023-05-04T13:35:58.348Z,100279.09
2023-05-04T13:38:26.250Z,100275.72
2023-05-04T13:40:56.746Z,100278.06
2023-05-04T13:43:24.369Z,100280.28
2023-05-04T13:45:52.335Z,100269.91
2023-05-04T13:48:19.565Z,100271.25
2023-05-04T13:50:46.882Z,100259.19
2023-05-04T13:53:14.128Z,100261.13
2023-05-04T13:55:41.343Z,100261.50
2023-05-04T13:58:08.563Z,100261.31
2023-05-04T14:00:35.801Z,100252.97
2023-05-04T14:03:03.610Z,100253.25
2023-05-04T14:05:31.000Z,100258.25
2023-05-04T14:07:58.181Z,100251.03
2023-05-04T14:10:25.879Z,100249.28
2023-05-04T14:12:53.083Z,100249.84
2023-05-04T14:15:22.691Z,100242.94
2023-05-04T14:17:50.555Z,100233.63
2023-05-04T14:20:18.241Z,100239.59
2023-05-04T14:22:45.670Z,100243.84
2023-05-04T14:25:13.307Z,100236.28
2023-05-04T14:27:43.137Z,100233.47
2023-05-04T14:30:11.619Z,100231.31
2023-05-04T14:32:39.735Z,100228.47
2023-05-04T14:35:09.682Z,100229.16
2023-05-04T14:37:39.444Z,100225.50
2023-05-04T14:40:10.839Z,100224.41
2023-05-04T14:42:38.807Z,100219.81
2023-05-04T14:45:08.583Z,100223.28
2023-05-04T14:47:36.094Z,100219.88
2023-05-04T14:50:04.184Z,100209.97
2023-05-04T14:52:31.700Z,100215.56
2023-05-04T14:54:59.587Z,100215.94
2023-05-04T14:57:27.085Z,100212.94
2023-05-04T14:59:54.720Z,100205.84
2023-05-04T15:02:22.100Z,100206.03
2023-05-04T15:04:49.548Z,100204.63
2023-05-04T15:07:18.679Z,100197.81
2023-05-04T15:09:46.369Z,100200.28
2023-05-04T15:12:13.504Z,100202.50
2023-05-04T15:14:40.676Z,100198.84
2023-05-04T15:17:07.923Z,100197.59
2023-05-04T15:19:39.300Z,100199.50
2023-05-04T15:22:07.589Z,100187.84
2023-05-04T15:24:34.838Z,100189.69
2023-05-04T15:27:02.237Z,100184.22
2023-05-04T15:29:29.539Z,100184.94
2023-05-04T15:31:56.923Z,100184.84
2023-05-04T15:34:24.189Z,100181.94
2023-05-04T15:36:52.038Z,100181.09
2023-05-04T15:39:19.088Z,100174.31
2023-05-04T15:41:46.406Z,100172.22
2023-05-04T15:44:13.595Z,100181.47
2023-05-04T15:46:41.035Z,100175.44
2023-05-04T15:49:08.352Z,100173.63
2023-05-04T15:51:35.566Z,100176.25
2023-05-04T15:54:03.756Z,100172.47
2023-05-04T15:56:31.061Z,100167.69
2023-05-04T15:58:58.250Z,100169.38
2023-05-04T16:01:25.521Z,100164.16
2023-05-04T16:03:56.291Z,100174.09
2023-05-04T16:06:23.897Z,100171.22
2023-05-04T16:08:51.502Z,100162.50
2023-05-04T16:11:18.728Z,100166.59
2023-05-04T16:13:46.366Z,100171.63
2023-05-04T16:16:13.654Z,100169.00
2023-05-04T16:18:40.900Z,100170.34
2023-05-04T16:21:08.840Z,100168.97
2023-05-04T16:23:36.403Z,100172.47
2023-05-04T16:26:03.777Z,100171.53
2023-05-04T16:28:31.080Z,100176.50
2023-05-04T16:30:58.275Z,100169.28
2023-05-04T16:33:26.678Z,100166.47
2023-05-04T16:35:53.948Z,100168.03
2023-05-04T16:38:21.097Z,100162.22
2023-05-04T16:40:48.319Z,100167.94
2023-05-04T16:43:15.691Z,100166.28
2023-05-04T16:45:42.893Z,100167.59
2023-05-04T16:48:10.483Z,100162.38
2023-05-04T16:50:38.320Z,100168.06
2023-05-04T16:53:05.504Z,100166.78
2023-05-04T16:55:32.633Z,100166.53
2023-05-04T16:58:00.073Z,100171.53
2023-05-04T17:00:28.706Z,100174.38
2023-05-04T17:02:55.992Z,100177.13
2023-05-04T17:05:23.157Z,100165.16
2023-05-04T17:07:51.007Z,100171.50
2023-05-04T17:10:18.762Z,100183.78
2023-05-04T17:12:46.040Z,100176.03
2023-05-04T17:15:13.437Z,100178.88
2023-05-04T17:17:41.510Z,100172.22
2023-05-04T17:20:14.600Z,100181.34
2023-05-04T17:22:43.561Z,100183.94
2023-05-04T17:25:12.489Z,100180.34
2023-05-04T17:27:40.012Z,100179.59
2023-05-04T17:30:08.431Z,100181.56
2023-05-04T17:32:37.412Z,100179.88
2023-05-04T17:35:20.209Z,100184.28
2023-05-04T17:37:51.140Z,100187.91
2023-05-04T17:40:18.352Z,100183.47
2023-05-04T17:42:45.582Z,100194.16
2023-05-04T17:45:12.837Z,100189.66
2023-05-04T17:47:40.038Z,100189.66
2023-05-04T17:50:08.500Z,100181.66
2023-05-04T17:52:36.438Z,100185.22
2023-05-04T17:55:04.403Z,100194.97
2023-05-04T17:57:31.537Z,100186.91
2023-05-04T17:59:59.672Z,100204.69
2023-05-04T18:02:29.617Z,100202.84
2023-05-04T18:04:56.858Z,100202.81
2023-05-04T18:07:24.152Z,100206.38
2023-05-04T18:09:51.560Z,100207.25
2023-05-04T18:12:18.696Z,100209.88
2023-05-04T18:14:45.889Z,100216.91
2023-05-04T18:17:13.034Z,100215.06
2023-05-04T18:19:40.363Z,100215.81
2023-05-04T18:22:07.559Z,100223.72
2023-05-04T18:24:34.705Z,100225.44
2023-05-04T18:27:02.125Z,100229.78
2023-05-04T18:29:29.424Z,100227.97
2023-05-04T18:31:56.742Z,100228.75
2023-05-04T18:34:23.927Z,100230.44
2023-05-04T18:36:51.053Z,100232.97
2023-05-04T18:39:18.790Z,100230.19
2023-05-04T18:41:46.151Z,100237.16
2023-05-04T18:44:17.455Z,100246.84
2023-05-04T18:46:44.851Z,100241.44
2023-05-04T18:49:11.998Z,100249.31
2023-05-04T18:51:41.647Z,100254.50
2023-05-04T18:54:08.999Z,100256.16
2023-05-04T18:56:36.438Z,100261.34
2023-05-04T18:59:05.879Z,100257.69
2023-05-04T19:01:33.131Z,100257.66
2023-05-04T19:04:00.463Z,100263.81
2023-05-04T19:06:27.719Z,100269.00
2023-05-04T19:08:55.061Z,100259.91
2023-05-04T19:11:22.299Z,100269.63
2023-05-04T19:13:50.055Z,100279.28
2023-05-04T19:16:17.504Z,100274.78
2023-05-04T19:18:45.682Z,100275.53
2023-05-04T19:21:12.761Z,100280.75
2023-05-04T19:23:39.996Z,100283.34
2023-05-04T19:26:07.177Z,100284.16
2023-05-04T19:28:34.400Z,100282.31
2023-05-04T19:31:01.733Z,100289.25
2023-05-04T19:33:36.678Z,100284.78
2023-05-04T19:36:12.266Z,100294.38
2023-05-04T19:38:39.500Z,100296.94
2023-05-04T19:41:06.658Z,100310.16
2023-05-04T19:43:33.824Z,100305.69
2023-05-04T19:46:02.596Z,100306.41
2023-05-04T19:48:29.809Z,100309.06
2023-05-04T19:50:56.987Z,100316.88
2023-05-04T19:53:24.118Z,100322.03
2023-05-04T19:55:51.917Z,100320.09
2023-05-04T19:58:19.087Z,100326.16
2023-05-04T20:00:46.420Z,100329.56
2023-05-04T20:03:13.737Z,100331.34
2023-05-04T20:05:40.945Z,100324.94
2023-05-04T20:08:08.260Z,100335.50
2023-05-04T20:10:35.551Z,100334.50
2023-05-04T20:13:03.310Z,100332.63
2023-05-04T20:15:30.617Z,100337.06
2023-05-04T20:17:57.873Z,100337.88
2023-05-04T20:20:25.133Z,100338.66
2023-05-04T20:22:52.734Z,100344.72
2023-05-04T20:25:20.148Z,100335.69
2023-05-04T20:27:48.792Z,100349.66
2023-05-04T20:30:15.997Z,100351.19
2023-05-04T20:32:44.036Z,100352.75
2023-05-04T20:35:11.380Z,100352.59
2023-05-04T20:37:38.607Z,100354.25
2023-05-04T20:40:08.240Z,100348.84
2023-05-04T20:42:35.932Z,100344.31
2023-05-04T20:45:03.284Z,100347.84
2023-05-04T20:47:31.210Z,100344.19
2023-05-04T20:49:58.410Z,100343.19
2023-05-04T20:52:25.641Z,100346.63
2023-05-04T20:54:52.924Z,100343.06
2023-05-04T20:57:20.155Z,100339.47
2023-05-04T20:59:47.450Z,100346.31
2023-05-04T21:02:14.861Z,100347.00
2023-05-04T21:04:43.315Z,100348.59
2023-05-04T21:07:10.532Z,100349.50
2023-05-04T21:09:37.682Z,100342.34
2023-05-04T21:12:05.216Z,100338.59
2023-05-04T21:14:32.335Z,100346.41
2023-05-04T21:16:59.498Z,100347.41
2023-05-04T21:19:26.664Z,100343.63
2023-05-04T21:21:54.161Z,100346.09
2023-05-04T21:24:21.851Z,100343.19
2023-05-04T21:26:49.621Z,100345.66
2023-05-04T21:29:16.845Z,100345.47
2023-05-04T21:31:43.985Z,100336.41
2023-05-04T21:34:11.155Z,100345.84
2023-05-04T21:36:38.982Z,100342.03
2023-05-04T21:39:06.727Z,100337.50
2023-05-04T21:41:33.959Z,100340.75
2023-05-04T21:44:01.190Z,100343.25
2023-05-04T21:46:28.422Z,100337.78
2023-05-04T21:48:55.814Z,100344.69
2023-05-04T21:51:23.008Z,100344.50
2023-05-04T21:53:50.142Z,100344.47
2023-05-04T21:56:17.565Z,100341.00
2023-05-04T21:58:44.761Z,100344.50
2023-05-04T22:01:17.149Z,100347.00
2023-05-04T22:03:44.884Z,100348.66
2023-05-04T22:06:12.437Z,100360.06
2023-05-04T22:08:40.491Z,100350.28
2023-05-04T22:11:07.684Z,100361.66
2023-05-04T22:13:34.977Z,100361.47
2023-05-04T22:16:02.162Z,100365.16
2023-05-04T22:18:29.311Z,100367.75
2023-05-04T22:20:56.498Z,100374.84
2023-05-04T22:23:23.672Z,100370.28
2023-05-04T22:25:51.051Z,100370.19
2023-05-04T22:28:18.207Z,100372.03
2023-05-04T22:30:45.364Z,100378.16
2023-05-04T22:33:12.531Z,100381.53
2023-05-04T22:35:39.674Z,100387.47
2023-05-04T22:38:06.866Z,100384.72
2023-05-04T22:40:34.162Z,100380.25
2023-05-04T22:43:01.337Z,100380.06
2023-05-04T22:45:28.579Z,100381.75
2023-05-04T22:47:55.911Z,100381.75
2023-05-04T22:50:23.283Z,100387.88
2023-05-04T22:52:50.547Z,100387.00
2023-05-04T22:55:17.868Z,100404.56
2023-05-04T22:57:45.098Z,100400.84
2023-05-04T23:00:13.539Z,100408.72
2023-05-04T23:02:40.870Z,100398.97
2023-05-04T23:05:09.220Z,100405.97
2023-05-04T23:07:36.305Z,100396.28
2023-05-04T23:10:04.349Z,100392.63
2023-05-04T23:12:31.562Z,100396.72
2023-05-04T23:14:59.199Z,100398.34
2023-05-04T23:17:26.408Z,100403.34
2023-05-04T23:19:53.630Z,100402.25
2023-05-04T23:22:20.752Z,100401.19
2023-05-04T23:24:47.918Z,100401.03
2023-05-04T23:27:15.065Z,100400.81
2023-05-04T23:29:42.203Z,100398.13
2023-05-04T23:32:09.592Z,100401.66
2023-05-04T23:34:36.986Z,100397.00
2023-05-04T23:37:04.123Z,100394.22
2023-05-04T23:39:31.274Z,100401.31
2023-05-04T23:41:58.424Z,100398.69
2023-05-04T23:44:25.690Z,100399.59
2023-05-04T23:46:52.912Z,100398.56
2023-05-04T23:49:20.028Z,100391.63
2023-05-04T23:51:47.158Z,100397.59
2023-05-04T23:54:15.150Z,100395.78
2023-05-04T23:56:42.310Z,100388.03
2023-05-04T23:59:10.484Z,100394.16
